Marchicora — V2OQ7 — position and weather

sailwx.info

Track history (hours):
 
Tides and Currents Weather Stations Pressure Air Temp Water Temp Dewpoint Dewpoint Depression Visibility Wind Speed Wind Dir Waves Ship Positions

Marchicora

Last reported at 2015-Aug-31 15:32 UTC. Time now 2015-Sep-01 01:57 UTC.
Position N 36°06' E 023°16'.

Length 153 m; draft 9.7 m.

Type: Cargo ship. MMSI: 304653000.

Date/timePositionNaut miles runAvg speedWind from/ knotsBaromVisibWave heightAir tempDewpointWater temp
2015-Aug-31 15:32N 36°06' E 023°16'1313.6
2015-Aug-31 14:33N 36°14' E 023°29'1613.3
2015-Aug-31 13:21N 36°24' E 023°45'  
2015-Aug-29 00:33N 36°20' E 024°47'1413.7
2015-Aug-28 23:33N 36°12' E 025°01'1313.5
2015-Aug-28 22:33N 36°03' E 025°14'1313.3
2015-Aug-28 21:33N 35°56' E 025°28'22111.1
2015-Aug-28 01:33N 33°05' E 028°18'2612.9
2015-Aug-27 23:33N 32°43' E 028°35'1913.0
2015-Aug-27 22:07N 32°28' E 028°48'713.4
2015-Aug-27 21:33N 32°21' E 028°52'1413.2
2015-Aug-27 20:29N 32°10' E 029°02'1213.3
2015-Aug-27 19:33N 31°59' E 029°10'1313.1
2015-Aug-27 18:33N 31°49' E 029°18'1313.2
2015-Aug-27 17:33N 31°38' E 029°27'1313.4
2015-Aug-27 16:33N 31°26' E 029°35'1313.0
2015-Aug-27 15:33N 31°16' E 029°44'8 8.3
2015-Aug-27 14:33N 31°10' E 029°51'  
Track history (hours):
 
Tides and Currents Weather Stations Pressure Air Temp Water Temp Dewpoint Dewpoint Depression Visibility Wind Speed Wind Dir Waves Ship Positions

Marchicora

Last reported at 2015-Aug-31 15:32 UTC. Time now 2015-Sep-01 01:57 UTC.
Position N 36°06' E 023°16'.

Length 153 m; draft 9.7 m.

Type: Cargo ship. MMSI: 304653000.

Date/timePositionNaut miles runAvg speedWind from/ knotsBaromVisibWave heightAir tempDewpointWater temp
2015-Aug-31 15:32N 36°06' E 023°16'1313.6
2015-Aug-31 14:33N 36°14' E 023°29'1613.3
2015-Aug-31 13:21N 36°24' E 023°45'  
2015-Aug-29 00:33N 36°20' E 024°47'1413.7
2015-Aug-28 23:33N 36°12' E 025°01'1313.5
2015-Aug-28 22:33N 36°03' E 025°14'1313.3
2015-Aug-28 21:33N 35°56' E 025°28'22111.1
2015-Aug-28 01:33N 33°05' E 028°18'2612.9
2015-Aug-27 23:33N 32°43' E 028°35'1913.0
2015-Aug-27 22:07N 32°28' E 028°48'713.4
2015-Aug-27 21:33N 32°21' E 028°52'1413.2
2015-Aug-27 20:29N 32°10' E 029°02'1213.3
2015-Aug-27 19:33N 31°59' E 029°10'1313.1
2015-Aug-27 18:33N 31°49' E 029°18'1313.2
2015-Aug-27 17:33N 31°38' E 029°27'1313.4
2015-Aug-27 16:33N 31°26' E 029°35'1313.0
2015-Aug-27 15:33N 31°16' E 029°44'8 8.3
2015-Aug-27 14:33N 31°10' E 029°51'  

Dump ship's entire track history